sensor_id;sensor_type;location;lat;lon;timestamp;pressure;altitude;pressure_sealevel;temperature;humidity
42621;BME280;28252;53.336;-6.298;2023-04-08T00:00:10;101666.28;;;22.32;100.00
42621;BME280;28252;53.336;-6.298;2023-04-08T00:00:44;101661.72;;;22.32;100.00
42621;BME280;28252;53.336;-6.298;2023-04-08T00:01:20;101658.28;;;22.30;100.00
42621;BME280;28252;53.336;-6.298;2023-04-08T00:01:53;101658.28;;;22.30;100.00
42621;BME280;28252;53.336;-6.298;2023-04-08T00:02:26;101658.47;;;22.29;100.00
42621;BME280;28252;53.336;-6.298;2023-04-08T00:02:57;101663.91;;;22.29;100.00
42621;BME280;28252;53.336;-6.298;2023-04-08T00:03:33;101656.59;;;22.29;100.00
42621;BME280;28252;53.336;-6.298;2023-04-08T00:04:04;101663.91;;;22.29;100.00
42621;BME280;28252;53.336;-6.298;2023-04-08T00:04:35;101656.75;;;22.28;100.00
42621;BME280;28252;53.336;-6.298;2023-04-08T00:05:11;101661.19;;;22.29;100.00
42621;BME280;28252;53.336;-6.298;2023-04-08T00:05:42;101658.47;;;22.29;100.00
42621;BME280;28252;53.336;-6.298;2023-04-08T00:06:16;101661.19;;;22.29;100.00
42621;BME280;28252;53.336;-6.298;2023-04-08T00:06:53;101665.88;;;22.27;100.00
42621;BME280;28252;53.336;-6.298;2023-04-08T00:07:31;101662.19;;;22.28;100.00
42621;BME280;28252;53.336;-6.298;2023-04-08T00:08:07;101658.59;;;22.27;100.00
42621;BME280;28252;53.336;-6.298;2023-04-08T00:08:43;101662.19;;;22.28;100.00
42621;BME280;28252;53.336;-6.298;2023-04-08T00:09:16;101664.91;;;22.28;100.00
42621;BME280;28252;53.336;-6.298;2023-04-08T00:09:54;101661.47;;;22.26;100.00
42621;BME280;28252;53.336;-6.298;2023-04-08T00:10:29;101662.31;;;22.26;100.00
42621;BME280;28252;53.336;-6.298;2023-04-08T00:11:02;101668.75;;;22.25;100.00
42621;BME280;28252;53.336;-6.298;2023-04-08T00:11:40;101666.03;;;22.25;100.00
42621;BME280;28252;53.336;-6.298;2023-04-08T00:12:17;101669.63;;;22.26;100.00
42621;BME280;28252;53.336;-6.298;2023-04-08T00:12:50;101665.19;;;22.25;100.00
42621;BME280;28252;53.336;-6.298;2023-04-08T00:13:25;101667.91;;;22.25;100.00
42621;BME280;28252;53.336;-6.298;2023-04-08T00:13:56;101663.50;;;22.24;100.00
42621;BME280;28252;53.336;-6.298;2023-04-08T00:14:32;101667.06;;;22.24;100.00
42621;BME280;28252;53.336;-6.298;2023-04-08T00:15:03;101663.50;;;22.24;100.00
42621;BME280;28252;53.336;-6.298;2023-04-08T00:15:39;101659.91;;;22.23;100.00
42621;BME280;28252;53.336;-6.298;2023-04-08T00:16:10;101669.94;;;22.23;100.00
42621;BME280;28252;53.336;-6.298;2023-04-08T00:16:41;101667.22;;;22.23;100.00
42621;BME280;28252;53.336;-6.298;2023-04-08T00:17:12;101666.38;;;22.22;100.00
42621;BME280;28252;53.336;-6.298;2023-04-08T00:17:48;101660.06;;;22.22;100.00
42621;BME280;28252;53.336;-6.298;2023-04-08T00:18:24;101665.50;;;22.22;100.00
42621;BME280;28252;53.336;-6.298;2023-04-08T00:18:58;101663.81;;;22.20;100.00
42621;BME280;28252;53.336;-6.298;2023-04-08T00:19:29;101663.81;;;22.20;100.00
42621;BME280;28252;53.336;-6.298;2023-04-08T00:20:04;101666.53;;;22.20;100.00
42621;BME280;28252;53.336;-6.298;2023-04-08T00:20:35;101663.81;;;22.20;100.00
42621;BME280;28252;53.336;-6.298;2023-04-08T00:21:09;101662.09;;;22.19;100.00
42621;BME280;28252;53.336;-6.298;2023-04-08T00:21:40;101668.38;;;22.20;100.00
42621;BME280;28252;53.336;-6.298;2023-04-08T00:22:15;101665.66;;;22.20;100.00
42621;BME280;28252;53.336;-6.298;2023-04-08T00:22:47;101672.97;;;22.19;100.00
42621;BME280;28252;53.336;-6.298;2023-04-08T00:23:20;101664.13;;;22.17;100.00
42621;BME280;28252;53.336;-6.298;2023-04-08T00:25:16;101663.09;;;22.18;100.00
42621;BME280;28252;53.336;-6.298;2023-04-08T00:25:47;101658.72;;;22.17;100.00
42621;BME280;28252;53.336;-6.298;2023-04-08T00:26:18;101660.38;;;22.18;100.00
42621;BME280;28252;53.336;-6.298;2023-04-08T00:26:52;101658.72;;;22.17;100.00
42621;BME280;28252;53.336;-6.298;2023-04-08T00:27:28;101657.00;;;22.16;100.00
42621;BME280;28252;53.336;-6.298;2023-04-08T00:27:59;101654.13;;;22.18;100.00
42621;BME280;28252;53.336;-6.298;2023-04-08T00:28:34;101664.13;;;22.17;100.00
42621;BME280;28252;53.336;-6.298;2023-04-08T00:29:06;101650.56;;;22.17;100.00
42621;BME280;28252;53.336;-6.298;2023-04-08T00:29:37;101651.56;;;22.16;100.00
42621;BME280;28252;53.336;-6.298;2023-04-08T00:30:10;101652.59;;;22.15;100.00
42621;BME280;28252;53.336;-6.298;2023-04-08T00:30:49;101654.28;;;22.16;100.00
42621;BME280;28252;53.336;-6.298;2023-04-08T00:31:24;101656.16;;;22.16;100.00
42621;BME280;28252;53.336;-6.298;2023-04-08T00:31:55;101650.88;;;22.14;100.00
42621;BME280;28252;53.336;-6.298;2023-04-08T00:32:29;101662.41;;;22.16;100.00
42621;BME280;28252;53.336;-6.298;2023-04-08T00:33:04;101657.00;;;22.16;100.00
42621;BME280;28252;53.336;-6.298;2023-04-08T00:33:41;101655.31;;;22.15;100.00
42621;BME280;28252;53.336;-6.298;2023-04-08T00:34:14;101658.03;;;22.15;100.00
42621;BME280;28252;53.336;-6.298;2023-04-08T00:34:45;101659.88;;;22.15;100.00
42621;BME280;28252;53.336;-6.298;2023-04-08T00:35:19;101659.03;;;22.14;100.00
42621;BME280;28252;53.336;-6.298;2023-04-08T00:35:52;101653.59;;;22.14;100.00
42621;BME280;28252;53.336;-6.298;2023-04-08T00:36:23;101653.59;;;22.14;100.00
42621;BME280;28252;53.336;-6.298;2023-04-08T00:36:58;101654.44;;;22.15;100.00
42621;BME280;28252;53.336;-6.298;2023-04-08T00:37:29;101650.03;;;22.14;100.00
42621;BME280;28252;53.336;-6.298;2023-04-08T00:38:03;101659.03;;;22.14;100.00
42621;BME280;28252;53.336;-6.298;2023-04-08T00:38:44;101655.31;;;22.15;100.00
42621;BME280;28252;53.336;-6.298;2023-04-08T00:39:20;101659.88;;;22.15;100.00
42621;BME280;28252;53.336;-6.298;2023-04-08T00:39:51;101663.44;;;22.15;100.00
42621;BME280;28252;53.336;-6.298;2023-04-08T00:40:26;101660.75;;;22.15;100.00
42621;BME280;28252;53.336;-6.298;2023-04-08T00:40:57;101666.16;;;22.15;100.00
42621;BME280;28252;53.336;-6.298;2023-04-08T00:41:28;101659.03;;;22.14;100.00
42621;BME280;28252;53.336;-6.298;2023-04-08T00:42:06;101666.16;;;22.15;100.00
42621;BME280;28252;53.336;-6.298;2023-04-08T00:42:40;101661.75;;;22.14;100.00
42621;BME280;28252;53.336;-6.298;2023-04-08T00:43:15;101664.44;;;22.14;100.00
42621;BME280;28252;53.336;-6.298;2023-04-08T00:43:52;101661.75;;;22.14;100.00
42621;BME280;28252;53.336;-6.298;2023-04-08T00:44:28;101661.75;;;22.14;100.00
42621;BME280;28252;53.336;-6.298;2023-04-08T00:45:00;101659.88;;;22.15;100.00
42621;BME280;28252;53.336;-6.298;2023-04-08T00:45:35;101664.44;;;22.14;100.00
42621;BME280;28252;53.336;-6.298;2023-04-08T00:46:16;101659.03;;;22.14;100.00
42621;BME280;28252;53.336;-6.298;2023-04-08T00:47:44;101665.44;;;22.13;100.00
42621;BME280;28252;53.336;-6.298;2023-04-08T00:48:18;101667.16;;;22.14;100.00
42621;BME280;28252;53.336;-6.298;2023-04-08T00:48:51;101662.72;;;22.13;100.00
42621;BME280;28252;53.336;-6.298;2023-04-08T00:49:24;101669.19;;;22.12;100.00
42621;BME280;28252;53.336;-6.298;2023-04-08T00:49:58;101670.03;;;22.13;100.00
42621;BME280;28252;53.336;-6.298;2023-04-08T00:50:29;101661.91;;;22.13;100.00
42621;BME280;28252;53.336;-6.298;2023-04-08T00:51:02;101665.63;;;22.12;100.00
42621;BME280;28252;53.336;-6.298;2023-04-08T00:51:40;101664.59;;;22.13;100.00
42621;BME280;28252;53.336;-6.298;2023-04-08T00:52:16;101671.06;;;22.12;100.00
42621;BME280;28252;53.336;-6.298;2023-04-08T00:52:56;101664.75;;;22.11;100.00
42621;BME280;28252;53.336;-6.298;2023-04-08T00:53:35;101667.47;;;22.11;100.00
42621;BME280;28252;53.336;-6.298;2023-04-08T00:54:08;101672.75;;;22.13;100.00
42621;BME280;28252;53.336;-6.298;2023-04-08T00:54:54;101664.75;;;22.11;100.00
42621;BME280;28252;53.336;-6.298;2023-04-08T00:55:29;101675.63;;;22.11;100.00
42621;BME280;28252;53.336;-6.298;2023-04-08T00:56:01;101669.50;;;22.09;100.00
42621;BME280;28252;53.336;-6.298;2023-04-08T00:56:34;101669.34;;;22.11;100.00
42621;BME280;28252;53.336;-6.298;2023-04-08T00:57:07;101667.63;;;22.10;100.00
42621;BME280;28252;53.336;-6.298;2023-04-08T00:57:38;101662.38;;;22.08;100.00
42621;BME280;28252;53.336;-6.298;2023-04-08T00:58:12;101666.78;;;22.09;100.00
42621;BME280;28252;53.336;-6.298;2023-04-08T00:58:43;101661.38;;;22.09;100.00
42621;BME280;28252;53.336;-6.298;2023-04-08T00:59:15;101664.06;;;22.09;100.00
42621;BME280;28252;53.336;-6.298;2023-04-08T00:59:49;101665.06;;;22.08;100.00
42621;BME280;28252;53.336;-6.298;2023-04-08T01:00:22;101650.66;;;22.08;100.00
42621;BME280;28252;53.336;-6.298;2023-04-08T01:01:00;101650.81;;;22.06;100.00
42621;BME280;28252;53.336;-6.298;2023-04-08T01:02:49;101652.53;;;22.07;100.00
42621;BME280;28252;53.336;-6.298;2023-04-08T01:04:12;101647.66;;;22.11;100.00
42621;BME280;28252;53.336;-6.298;2023-04-08T01:05:01;101646.81;;;22.10;100.00
42621;BME280;28252;53.336;-6.298;2023-04-08T01:06:12;101650.50;;;22.09;100.00
42621;BME280;28252;53.336;-6.298;2023-04-08T01:07:47;101647.50;;;22.12;100.00
42621;BME280;28252;53.336;-6.298;2023-04-08T01:08:23;101643.06;;;22.11;100.00
42621;BME280;28252;53.336;-6.298;2023-04-08T01:08:59;101651.19;;;22.11;100.00
42621;BME280;28252;53.336;-6.298;2023-04-08T01:09:38;101653.06;;;22.11;100.00
42621;BME280;28252;53.336;-6.298;2023-04-08T01:10:19;101649.50;;;22.10;100.00
42621;BME280;28252;53.336;-6.298;2023-04-08T01:10:58;101653.06;;;22.11;100.00
42621;BME280;28252;53.336;-6.298;2023-04-08T01:11:36;101646.81;;;22.10;100.00
42621;BME280;28252;53.336;-6.298;2023-04-08T01:12:17;101645.94;;;22.10;100.00
42621;BME280;28252;53.336;-6.298;2023-04-08T01:12:55;101647.81;;;22.09;100.00
42621;BME280;28252;53.336;-6.298;2023-04-08T01:13:27;101638.81;;;22.09;100.00
42621;BME280;28252;53.336;-6.298;2023-04-08T01:14:08;101645.09;;;22.09;100.00
42621;BME280;28252;53.336;-6.298;2023-04-08T01:14:43;101637.94;;;22.08;100.00
42621;BME280;28252;53.336;-6.298;2023-04-08T01:15:16;101641.53;;;22.09;100.00
42621;BME280;28252;53.336;-6.298;2023-04-08T01:15:52;101645.09;;;22.09;100.00
42621;BME280;28252;53.336;-6.298;2023-04-08T01:16:27;101645.09;;;22.09;100.00
42621;BME280;28252;53.336;-6.298;2023-04-08T01:17:00;101641.69;;;22.07;100.00
42621;BME280;28252;53.336;-6.298;2023-04-08T01:17:32;101643.56;;;22.07;100.00
42621;BME280;28252;53.336;-6.298;2023-04-08T01:18:07;101641.69;;;22.07;100.00
42621;BME280;28252;53.336;-6.298;2023-04-08T01:18:41;101639.97;;;22.06;100.00
42621;BME280;28252;53.336;-6.298;2023-04-08T01:20:18;101638.28;;;22.05;100.00
42621;BME280;28252;53.336;-6.298;2023-04-08T01:20:49;101643.72;;;22.05;100.00
42621;BME280;28252;53.336;-6.298;2023-04-08T01:21:21;101643.72;;;22.05;100.00
42621;BME280;28252;53.336;-6.298;2023-04-08T01:21:53;101643.72;;;22.05;100.00
42621;BME280;28252;53.336;-6.298;2023-04-08T01:24:05;101646.44;;;22.05;100.00
42621;BME280;28252;53.336;-6.298;2023-04-08T01:24:42;101645.41;;;22.06;100.00
42621;BME280;28252;53.336;-6.298;2023-04-08T01:26:39;101639.97;;;22.06;100.00
42621;BME280;28252;53.336;-6.298;2023-04-08T01:27:11;101652.69;;;22.06;100.00
42621;BME280;28252;53.336;-6.298;2023-04-08T01:27:49;101639.28;;;22.04;100.00
42621;BME280;28252;53.336;-6.298;2023-04-08T01:28:26;101647.44;;;22.04;100.00
42621;BME280;28252;53.336;-6.298;2023-04-08T01:29:00;101648.28;;;22.05;100.00
42621;BME280;28252;53.336;-6.298;2023-04-08T01:29:39;101657.28;;;22.05;100.00
42621;BME280;28252;53.336;-6.298;2023-04-08T01:30:11;101649.97;;;22.06;100.00
42621;BME280;28252;53.336;-6.298;2023-04-08T01:30:43;101649.16;;;22.05;100.00
42621;BME280;28252;53.336;-6.298;2023-04-08T01:31:21;101636.56;;;22.04;100.00
42621;BME280;28252;53.336;-6.298;2023-04-08T01:31:56;101650.13;;;22.04;100.00
42621;BME280;28252;53.336;-6.298;2023-04-08T01:32:33;101646.59;;;22.04;100.00
42621;BME280;28252;53.336;-6.298;2023-04-08T01:34:23;101645.72;;;22.03;100.00
42621;BME280;28252;53.336;-6.298;2023-04-08T01:35:03;101642.00;;;22.04;100.00
42621;BME280;28252;53.336;-6.298;2023-04-08T01:35:39;101642.00;;;22.04;100.00
42621;BME280;28252;53.336;-6.298;2023-04-08T01:36:15;101642.00;;;22.04;100.00
42621;BME280;28252;53.336;-6.298;2023-04-08T01:36:49;101640.28;;;22.03;100.00
42621;BME280;28252;53.336;-6.298;2023-04-08T01:37:24;101645.72;;;22.03;100.00
42621;BME280;28252;53.336;-6.298;2023-04-08T01:38:00;101644.88;;;22.02;100.00
42621;BME280;28252;53.336;-6.298;2023-04-08T01:38:41;101639.59;;;22.01;100.00
42621;BME280;28252;53.336;-6.298;2023-04-08T01:40:25;101649.44;;;22.02;100.00
42621;BME280;28252;53.336;-6.298;2023-04-08T01:40:58;101645.03;;;22.01;100.00
42621;BME280;28252;53.336;-6.298;2023-04-08T01:41:31;101650.44;;;22.01;100.00
42621;BME280;28252;53.336;-6.298;2023-04-08T01:42:07;101654.88;;;22.02;100.00
42621;BME280;28252;53.336;-6.298;2023-04-08T01:42:39;101647.75;;;22.01;100.00
42621;BME280;28252;53.336;-6.298;2023-04-08T01:43:16;101651.31;;;22.01;100.00
42621;BME280;28252;53.336;-6.298;2023-04-08T01:43:52;101648.63;;;22.01;100.00
42621;BME280;28252;53.336;-6.298;2023-04-08T01:45:48;101655.88;;;22.01;100.00
42621;BME280;28252;53.336;-6.298;2023-04-08T01:46:22;101652.31;;;22.00;100.00
42621;BME280;28252;53.336;-6.298;2023-04-08T01:46:53;101655.88;;;22.01;100.00
42621;BME280;28252;53.336;-6.298;2023-04-08T01:47:33;101651.47;;;22.00;100.00
42621;BME280;28252;53.336;-6.298;2023-04-08T01:48:07;101650.44;;;22.01;100.00
42621;BME280;28252;53.336;-6.298;2023-04-08T01:48:42;101649.63;;;22.00;100.00
42621;BME280;28252;53.336;-6.298;2023-04-08T01:49:16;101648.78;;;22.00;100.00
42621;BME280;28252;53.336;-6.298;2023-04-08T01:49:51;101655.03;;;22.00;100.00
42621;BME280;28252;53.336;-6.298;2023-04-08T01:50:25;101640.63;;;22.00;100.00
42621;BME280;28252;53.336;-6.298;2023-04-08T01:51:01;101651.47;;;22.00;100.00
42621;BME280;28252;53.336;-6.298;2023-04-08T01:52:58;101649.78;;;21.99;100.00
42621;BME280;28252;53.336;-6.298;2023-04-08T01:53:32;101655.19;;;21.99;100.00
42621;BME280;28252;53.336;-6.298;2023-04-08T01:54:06;101648.06;;;21.98;100.00
42621;BME280;28252;53.336;-6.298;2023-04-08T01:54:41;101647.06;;;21.99;100.00
42621;BME280;28252;53.336;-6.298;2023-04-08T01:55:14;101639.91;;;21.98;100.00
42621;BME280;28252;53.336;-6.298;2023-04-08T01:55:50;101645.34;;;21.98;100.00
42621;BME280;28252;53.336;-6.298;2023-04-08T01:56:24;101649.09;;;21.97;100.00
42621;BME280;28252;53.336;-6.298;2023-04-08T01:56:59;101644.50;;;21.97;100.00
42621;BME280;28252;53.336;-6.298;2023-04-08T01:59:00;101649.09;;;21.97;100.00
42621;BME280;28252;53.336;-6.298;2023-04-08T01:59:34;101648.06;;;21.98;100.00
42621;BME280;28252;53.336;-6.298;2023-04-08T02:00:11;101648.06;;;21.98;100.00
42621;BME280;28252;53.336;-6.298;2023-04-08T02:00:52;101637.19;;;21.98;100.00
42621;BME280;28252;53.336;-6.298;2023-04-08T02:01:26;101635.38;;;21.98;100.00
42621;BME280;28252;53.336;-6.298;2023-04-08T02:02:04;101638.06;;;21.98;100.00
42621;BME280;28252;53.336;-6.298;2023-04-08T02:02:37;101632.81;;;21.97;100.00
42621;BME280;28252;53.336;-6.298;2023-04-08T02:03:12;101633.50;;;21.99;100.00
42621;BME280;28252;53.336;-6.298;2023-04-08T02:03:50;101633.66;;;21.97;100.00
42621;BME280;28252;53.336;-6.298;2023-04-08T02:04:25;101638.06;;;21.98;100.00
42621;BME280;28252;53.336;-6.298;2023-04-08T02:05:04;101632.66;;;21.98;100.00
42621;BME280;28252;53.336;-6.298;2023-04-08T02:05:38;101628.91;;;21.99;100.00
42621;BME280;28252;53.336;-6.298;2023-04-08T02:06:09;101635.22;;;22.00;100.00
42621;BME280;28252;53.336;-6.298;2023-04-08T02:06:45;101635.22;;;22.00;100.00
42621;BME280;28252;53.336;-6.298;2023-04-08T02:07:18;101634.34;;;21.99;100.00
42621;BME280;28252;53.336;-6.298;2023-04-08T02:07:52;101634.34;;;21.99;100.00
42621;BME280;28252;53.336;-6.298;2023-04-08T02:08:24;101634.34;;;21.99;100.00
42621;BME280;28252;53.336;-6.298;2023-04-08T02:08:58;101634.34;;;21.99;100.00
42621;BME280;28252;53.336;-6.298;2023-04-08T02:09:31;101640.63;;;22.00;100.00
42621;BME280;28252;53.336;-6.298;2023-04-08T02:10:05;101638.91;;;21.99;100.00
42621;BME280;28252;53.336;-6.298;2023-04-08T02:10:36;101635.38;;;21.98;100.00
42621;BME280;28252;53.336;-6.298;2023-04-08T02:11:08;101638.06;;;21.98;100.00
42621;BME280;28252;53.336;-6.298;2023-04-08T02:11:42;101638.91;;;21.99;100.00
42621;BME280;28252;53.336;-6.298;2023-04-08T02:12:16;101635.53;;;21.97;100.00
42621;BME280;28252;53.336;-6.298;2023-04-08T02:12:48;101635.53;;;21.97;100.00
42621;BME280;28252;53.336;-6.298;2023-04-08T02:13:19;101645.34;;;21.98;100.00
42621;BME280;28252;53.336;-6.298;2023-04-08T02:13:50;101636.34;;;21.97;100.00
42621;BME280;28252;53.336;-6.298;2023-04-08T02:14:27;101635.53;;;21.97;100.00
42621;BME280;28252;53.336;-6.298;2023-04-08T02:15:02;101638.06;;;21.98;100.00
42621;BME280;28252;53.336;-6.298;2023-04-08T02:15:37;101635.53;;;21.97;100.00
42621;BME280;28252;53.336;-6.298;2023-04-08T02:16:47;101635.53;;;21.97;100.00
42621;BME280;28252;53.336;-6.298;2023-04-08T02:18:08;101634.69;;;21.96;100.00
42621;BME280;28252;53.336;-6.298;2023-04-08T02:18:44;101646.38;;;21.97;100.00
42621;BME280;28252;53.336;-6.298;2023-04-08T02:20:23;101644.66;;;21.96;100.00
42621;BME280;28252;53.336;-6.298;2023-04-08T02:21:02;101639.22;;;21.96;100.00
42621;BME280;28252;53.336;-6.298;2023-04-08T02:21:48;101646.38;;;21.97;100.00
42621;BME280;28252;53.336;-6.298;2023-04-08T02:22:24;101642.97;;;21.95;100.00
42621;BME280;28252;53.336;-6.298;2023-04-08T02:23:05;101635.69;;;21.95;100.00
42621;BME280;28252;53.336;-6.298;2023-04-08T02:23:40;101644.66;;;21.96;100.00
42621;BME280;28252;53.336;-6.298;2023-04-08T02:24:13;101647.38;;;21.96;100.00
42621;BME280;28252;53.336;-6.298;2023-04-08T02:24:52;101644.66;;;21.96;100.00
42621;BME280;28252;53.336;-6.298;2023-04-08T02:25:24;101643.81;;;21.95;100.00
42621;BME280;28252;53.336;-6.298;2023-04-08T02:25:57;101648.41;;;21.95;100.00
42621;BME280;28252;53.336;-6.298;2023-04-08T02:26:35;101648.41;;;21.95;100.00
42621;BME280;28252;53.336;-6.298;2023-04-08T02:27:09;101648.41;;;21.95;100.00
42621;BME280;28252;53.336;-6.298;2023-04-08T02:27:43;101642.97;;;21.95;100.00
42621;BME280;28252;53.336;-6.298;2023-04-08T02:28:16;101644.66;;;21.96;100.00
42621;BME280;28252;53.336;-6.298;2023-04-08T02:28:50;101646.53;;;21.95;100.00
42621;BME280;28252;53.336;-6.298;2023-04-08T02:29:28;101643.66;;;21.97;100.00
42621;BME280;28252;53.336;-6.298;2023-04-08T02:30:02;101644.66;;;21.96;100.00
42621;BME280;28252;53.336;-6.298;2023-04-08T02:30:40;101641.94;;;21.96;100.00
42621;BME280;28252;53.336;-6.298;2023-04-08T02:31:15;101644.66;;;21.96;100.00
42621;BME280;28252;53.336;-6.298;2023-04-08T02:31:49;101642.09;;;21.94;100.00
42621;BME280;28252;53.336;-6.298;2023-04-08T02:32:21;101639.22;;;21.96;100.00
42621;BME280;28252;53.336;-6.298;2023-04-08T02:32:56;101644.66;;;21.96;100.00
42621;BME280;28252;53.336;-6.298;2023-04-08T02:33:28;101642.97;;;21.95;100.00
42621;BME280;28252;53.336;-6.298;2023-04-08T02:34:04;101642.97;;;21.95;100.00
42621;BME280;28252;53.336;-6.298;2023-04-08T02:34:39;101640.25;;;21.95;100.00
42621;BME280;28252;53.336;-6.298;2023-04-08T02:35:15;101642.97;;;21.95;100.00
42621;BME280;28252;53.336;-6.298;2023-04-08T02:35:52;101642.97;;;21.95;100.00
42621;BME280;28252;53.336;-6.298;2023-04-08T02:37:48;101635.00;;;21.93;100.00
42621;BME280;28252;53.336;-6.298;2023-04-08T02:38:24;101642.97;;;21.95;100.00
42621;BME280;28252;53.336;-6.298;2023-04-08T02:38:59;101633.97;;;21.94;100.00
42621;BME280;28252;53.336;-6.298;2023-04-08T02:39:35;101635.69;;;21.95;100.00
42621;BME280;28252;53.336;-6.298;2023-04-08T02:40:57;101634.84;;;21.95;100.00
42621;BME280;28252;53.336;-6.298;2023-04-08T02:41:35;101630.25;;;21.95;100.00
42621;BME280;28252;53.336;-6.298;2023-04-08T02:42:08;101633.97;;;21.94;100.00
42621;BME280;28252;53.336;-6.298;2023-04-08T02:42:43;101631.09;;;21.96;100.00
42621;BME280;28252;53.336;-6.298;2023-04-08T02:43:17;101633.81;;;21.96;100.00
42621;BME280;28252;53.336;-6.298;2023-04-08T02:43:50;101628.38;;;21.96;100.00
42621;BME280;28252;53.336;-6.298;2023-04-08T02:44:25;101634.69;;;21.96;100.00
42621;BME280;28252;53.336;-6.298;2023-04-08T02:45:03;101638.22;;;21.97;100.00
42621;BME280;28252;53.336;-6.298;2023-04-08T02:45:42;101634.69;;;21.96;100.00
42621;BME280;28252;53.336;-6.298;2023-04-08T02:46:13;101633.81;;;21.96;100.00
42621;BME280;28252;53.336;-6.298;2023-04-08T02:46:46;101633.81;;;21.96;100.00
42621;BME280;28252;53.336;-6.298;2023-04-08T02:47:19;101633.81;;;21.96;100.00
42621;BME280;28252;53.336;-6.298;2023-04-08T02:47:53;101641.94;;;21.96;100.00
42621;BME280;28252;53.336;-6.298;2023-04-08T02:48:24;101632.13;;;21.95;100.00
42621;BME280;28252;53.336;-6.298;2023-04-08T02:48:57;101631.97;;;21.96;100.00
42621;BME280;28252;53.336;-6.298;2023-04-08T02:49:32;101636.50;;;21.96;100.00
42621;BME280;28252;53.336;-6.298;2023-04-08T02:50:03;101632.97;;;21.95;100.00
42621;BME280;28252;53.336;-6.298;2023-04-08T02:51:28;101644.66;;;21.96;100.00
42621;BME280;28252;53.336;-6.298;2023-04-08T02:51:59;101628.38;;;21.96;100.00
42621;BME280;28252;53.336;-6.298;2023-04-08T02:52:35;101629.25;;;21.96;100.00
42621;BME280;28252;53.336;-6.298;2023-04-08T02:53:08;101627.53;;;21.95;100.00
42621;BME280;28252;53.336;-6.298;2023-04-08T02:53:44;101632.13;;;21.95;100.00
42621;BME280;28252;53.336;-6.298;2023-04-08T02:54:19;101632.97;;;21.95;100.00
42621;BME280;28252;53.336;-6.298;2023-04-08T02:54:55;101631.09;;;21.96;100.00
42621;BME280;28252;53.336;-6.298;2023-04-08T02:55:28;101632.13;;;21.95;100.00
42621;BME280;28252;53.336;-6.298;2023-04-08T02:56:02;101631.09;;;21.96;100.00
42621;BME280;28252;53.336;-6.298;2023-04-08T02:56:35;101632.13;;;21.95;100.00
42621;BME280;28252;53.336;-6.298;2023-04-08T02:57:13;101632.13;;;21.95;100.00
42621;BME280;28252;53.336;-6.298;2023-04-08T02:57:45;101631.25;;;21.94;100.00
42621;BME280;28252;53.336;-6.298;2023-04-08T02:58:21;101632.97;;;21.95;100.00
42621;BME280;28252;53.336;-6.298;2023-04-08T02:58:57;101631.41;;;21.93;100.00
42621;BME280;28252;53.336;-6.298;2023-04-08T02:59:33;101631.25;;;21.94;100.00
42621;BME280;28252;53.336;-6.298;2023-04-08T03:00:07;101628.69;;;21.93;100.00
42621;BME280;28252;53.336;-6.298;2023-04-08T03:00:40;101637.69;;;21.93;100.00
42621;BME280;28252;53.336;-6.298;2023-04-08T03:01:16;101628.69;;;21.93;100.00
42621;BME280;28252;53.336;-6.298;2023-04-08T03:01:49;101632.28;;;21.93;100.00
42621;BME280;28252;53.336;-6.298;2023-04-08T03:02:22;101624.97;;;21.94;100.00
42621;BME280;28252;53.336;-6.298;2023-04-08T03:03:00;101632.13;;;21.95;100.00
42621;BME280;28252;53.336;-6.298;2023-04-08T03:03:33;101634.13;;;21.93;100.00
42621;BME280;28252;53.336;-6.298;2023-04-08T03:04:06;101633.28;;;21.92;100.00
42621;BME280;28252;53.336;-6.298;2023-04-08T03:04:38;101635.16;;;21.92;100.00
42621;BME280;28252;53.336;-6.298;2023-04-08T03:05:14;101629.72;;;21.92;100.00
42621;BME280;28252;53.336;-6.298;2023-04-08T03:05:48;101642.25;;;21.93;100.00
42621;BME280;28252;53.336;-6.298;2023-04-08T03:06:22;101628.69;;;21.93;100.00
42621;BME280;28252;53.336;-6.298;2023-04-08T03:06:58;101632.13;;;21.95;100.00
42621;BME280;28252;53.336;-6.298;2023-04-08T03:07:30;101623.28;;;21.93;100.00
42621;BME280;28252;53.336;-6.298;2023-04-08T03:08:04;101631.41;;;21.93;100.00
42621;BME280;28252;53.336;-6.298;2023-04-08T03:08:38;101628.69;;;21.93;100.00
42621;BME280;28252;53.336;-6.298;2023-04-08T03:09:16;101625.97;;;21.93;100.00
42621;BME280;28252;53.336;-6.298;2023-04-08T03:09:53;101628.69;;;21.93;100.00
42621;BME280;28252;53.336;-6.298;2023-04-08T03:10:27;101628.69;;;21.93;100.00
42621;BME280;28252;53.336;-6.298;2023-04-08T03:11:00;101629.56;;;21.93;100.00
42621;BME280;28252;53.336;-6.298;2023-04-08T03:11:31;101628.69;;;21.93;100.00
42621;BME280;28252;53.336;-6.298;2023-04-08T03:12:02;101625.81;;;21.94;100.00
42621;BME280;28252;53.336;-6.298;2023-04-08T03:12:38;101628.69;;;21.93;100.00
42621;BME280;28252;53.336;-6.298;2023-04-08T03:13:11;101631.41;;;21.93;100.00
42621;BME280;28252;53.336;-6.298;2023-04-08T03:13:42;101636.81;;;21.93;100.00
42621;BME280;28252;53.336;-6.298;2023-04-08T03:14:18;101623.41;;;21.91;100.00
42621;BME280;28252;53.336;-6.298;2023-04-08T03:14:51;101633.28;;;21.92;100.00
42621;BME280;28252;53.336;-6.298;2023-04-08T03:15:22;101638.69;;;21.92;100.00
42621;BME280;28252;53.336;-6.298;2023-04-08T03:15:53;101628.69;;;21.93;100.00
42621;BME280;28252;53.336;-6.298;2023-04-08T03:16:25;101636.97;;;21.91;100.00
42621;BME280;28252;53.336;-6.298;2023-04-08T03:16:58;101628.84;;;21.91;100.00
42621;BME280;28252;53.336;-6.298;2023-04-08T03:17:33;101636.13;;;21.91;100.00
42621;BME280;28252;53.336;-6.298;2023-04-08T03:18:09;101637.84;;;21.92;100.00